Time;durP1;ratioP1;P1;durP2;ratioP2;P2;SDS_P1;SDS_P2;PMS_P1;PMS_P2;Temp;Humidity;BMP_temperature;BMP_pressure;BME280_temperature;BME280_humidity;BME280_pressure;Samples;Min_cycle;Max_cycle;Signal;HPM_P1;HPM_P2
2021/07/27 00:01:06;;;;;;;;;;;18.70;99.90;;;;;;5053625;28;20004;-69
2021/07/27 00:03:31;;;;;;;;;;;18.70;99.90;;;;;;5053623;28;19916;-69
2021/07/27 00:05:56;;;;;;;;;;;18.70;99.90;;;;;;5053622;28;19909;-68
2021/07/27 00:08:22;;;;;;;;;;;18.80;99.90;;;;;;5053568;28;19981;-69
2021/07/27 00:10:47;;;;;;;;;;;18.80;99.90;;;;;;5053573;28;19955;-69
2021/07/27 00:13:13;;;;;;;;;;;18.80;99.90;;;;;;5053557;28;19912;-69
2021/07/27 00:15:38;;;;;;;;;;;18.80;99.90;;;;;;5053536;28;20384;-69
2021/07/27 00:18:07;;;;;;;;;;;18.80;99.90;;;;;;5053139;28;20407;-69
2021/07/27 00:20:32;;;;;;;;;;;18.80;99.90;;;;;;5053459;28;19909;-69
2021/07/27 00:22:58;;;;;;;;;;;18.70;99.90;;;;;;5053710;28;19975;-68
2021/07/27 00:25:23;;;;;;;;;;;18.80;99.90;;;;;;5054415;28;19909;-68
2021/07/27 00:27:49;;;;;;;;;;;18.70;99.90;;;;;;5057104;28;19913;-68
2021/07/27 00:30:15;;;;;;;;;;;18.70;99.90;;;;;;5057097;28;20015;-69
2021/07/27 00:32:41;;;;;;;;;;;18.60;99.90;;;;;;5055462;28;19955;-69
2021/07/27 00:35:07;;;;;;;;;;;18.60;99.90;;;;;;5056668;28;19909;-69
2021/07/27 00:37:34;;;;;;;;;;;18.50;99.90;;;;;;5056559;28;19955;-68
2021/07/27 00:40:00;;;;;;;;;;;18.50;99.90;;;;;;5056602;28;20007;-69
2021/07/27 00:42:26;;;;;;;;;;;18.50;99.90;;;;;;5056585;28;19916;-69
2021/07/27 00:44:52;;;;;;;;;;;18.40;99.90;;;;;;5056477;28;19909;-69
2021/07/27 00:47:17;;;;;;;;;;;18.40;99.90;;;;;;5056484;28;19909;-69
2021/07/27 00:49:43;;;;;;;;;;;18.40;99.90;;;;;;5057041;28;20329;-68
2021/07/27 00:52:08;;;;;;;;;;;18.40;99.90;;;;;;5056956;28;19909;-69
2021/07/27 00:54:34;;;;;;;;;;;18.30;99.90;;;;;;5056594;28;19940;-69
2021/07/27 00:57:00;;;;;;;;;;;18.30;99.90;;;;;;5038379;28;19991;-68
2021/07/27 00:59:27;;;;;;;;;;;18.30;99.90;;;;;;5056166;28;19960;-69
2021/07/27 01:01:52;;;;;;;;;;;18.30;99.90;;;;;;5056157;28;19909;-68
2021/07/27 01:04:17;;;;;;;;;;;18.30;99.90;;;;;;5056171;28;19909;-68
2021/07/27 01:06:43;;;;;;;;;;;18.30;99.90;;;;;;5038240;28;20424;-69
2021/07/27 01:09:09;;;;;;;;;;;18.20;99.90;;;;;;5054794;28;20274;-68
2021/07/27 01:11:39;;;;;;;;;;;18.20;99.90;;;;;;5054743;28;20004;-68
2021/07/27 01:14:04;;;;;;;;;;;18.20;99.90;;;;;;5055012;28;19913;-68
2021/07/27 01:16:34;;;;;;;;;;;18.20;99.90;;;;;;5055878;28;19908;-68
2021/07/27 01:38:42;;;;;;;;;;;18.20;99.90;;;;;;5055239;28;20434;-68
2021/07/27 01:42:04;;;;;;;;;;;18.30;99.90;;;;;;5055329;28;19958;-68
2021/07/27 01:43:51;;;;;;;;;;;18.30;99.90;;;;;;5055241;28;19971;-69
2021/07/27 01:46:17;;;;;;;;;;;18.30;99.90;;;;;;5055582;28;20370;-68
2021/07/27 01:48:44;;;;;;;;;;;18.30;99.90;;;;;;5055266;28;19915;-68
2021/07/27 01:53:49;;;;;;;;;;;18.20;99.90;;;;;;5092343;27;20289;-67
2021/07/27 01:56:15;;;;;;;;;;;18.20;99.90;;;;;;5091756;28;19942;-67
2021/07/27 01:58:41;;;;;;;;;;;18.20;99.90;;;;;;5091690;28;19909;-67
2021/07/27 02:01:07;;;;;;;;;;;18.20;99.90;;;;;;5091676;28;19954;-67
2021/07/27 02:03:32;;;;;;;;;;;18.20;99.90;;;;;;5091242;28;19935;-67
2021/07/27 02:05:57;;;;;;;;;;;18.10;99.90;;;;;;5091260;28;19912;-67
2021/07/27 02:08:23;;;;;;;;;;;18.10;99.90;;;;;;5124350;28;19912;-67
2021/07/27 02:10:53;;;;;;;;;;;18.10;99.90;;;;;;5091456;28;19927;-68
2021/07/27 02:13:27;;;;;;;;;;;18.10;99.90;;;;;;5091312;28;19923;-67
2021/07/27 02:15:52;;;;;;;;;;;18.00;99.90;;;;;;5091352;28;19908;-67
2021/07/27 02:18:18;;;;;;;;;;;18.00;99.90;;;;;;5091042;28;20400;-67
2021/07/27 02:20:46;;;;;;;;;;;18.00;99.90;;;;;;5091013;28;20058;-68
2021/07/27 02:23:11;;;;;;;;;;;18.00;99.90;;;;;;5091197;28;19909;-69
2021/07/27 02:25:37;;;;;;;;;;;18.00;99.90;;;;;;5091161;28;19915;-67
2021/07/27 02:28:03;;;;;;;;;;;17.90;99.90;;;;;;5091137;28;19908;-67
2021/07/27 02:30:32;;;;;;;;;;;17.90;99.90;;;;;;5090819;28;20411;-67
2021/07/27 02:32:57;;;;;;;;;;;17.90;99.90;;;;;;5091231;28;20357;-67
2021/07/27 02:35:24;;;;;;;;;;;17.90;99.90;;;;;;5090984;28;19908;-68
2021/07/27 02:37:49;;;;;;;;;;;17.90;99.90;;;;;;5090940;28;20300;-67
2021/07/27 02:40:15;;;;;;;;;;;17.90;99.90;;;;;;5091173;28;19908;-67
2021/07/27 02:42:40;;;;;;;;;;;17.90;99.90;;;;;;5090872;28;19981;-67
2021/07/27 02:45:08;;;;;;;;;;;18.00;99.90;;;;;;5090811;28;19949;-67
2021/07/27 02:47:33;;;;;;;;;;;18.10;99.90;;;;;;5090463;28;20293;-68
2021/07/27 02:49:59;;;;;;;;;;;18.00;99.90;;;;;;5090432;28;19908;-67
2021/07/27 02:52:24;;;;;;;;;;;18.00;99.90;;;;;;5099423;28;19963;-67
2021/07/27 02:54:50;;;;;;;;;;;18.10;99.90;;;;;;5110673;28;19908;-67
2021/07/27 02:57:15;;;;;;;;;;;18.10;99.90;;;;;;5110618;28;19908;-67
2021/07/27 02:59:41;;;;;;;;;;;18.10;99.90;;;;;;5110615;28;19915;-67
2021/07/27 03:02:06;;;;;;;;;;;18.10;99.90;;;;;;5110591;28;19998;-67
2021/07/27 03:04:32;;;;;;;;;;;18.00;99.90;;;;;;5100333;28;20361;-66
2021/07/27 03:06:57;;;;;;;;;;;18.00;99.90;;;;;;5096903;28;19908;-67
2021/07/27 03:09:24;;;;;;;;;;;18.00;99.90;;;;;;5097116;28;19908;-67
2021/07/27 03:11:50;;;;;;;;;;;18.00;99.90;;;;;;5096984;28;19968;-67
2021/07/27 03:14:16;;;;;;;;;;;17.90;99.90;;;;;;5097053;28;19908;-68
2021/07/27 03:16:41;;;;;;;;;;;17.90;99.90;;;;;;5096964;28;19908;-67
2021/07/27 03:19:06;;;;;;;;;;;17.80;99.90;;;;;;5096908;28;19907;-67
2021/07/27 03:21:32;;;;;;;;;;;17.80;99.90;;;;;;5096871;28;19908;-69
2021/07/27 03:23:57;;;;;;;;;;;17.80;99.90;;;;;;5096844;28;19908;-69
2021/07/27 03:26:23;;;;;;;;;;;17.80;99.90;;;;;;5078421;28;19957;-70
2021/07/27 03:28:49;;;;;;;;;;;17.70;99.90;;;;;;5078300;28;19912;-67
2021/07/27 03:31:15;;;;;;;;;;;17.70;99.90;;;;;;5096418;28;20003;-67
2021/07/27 03:33:40;;;;;;;;;;;17.60;99.90;;;;;;5096587;28;19913;-68
2021/07/27 03:36:06;;;;;;;;;;;17.60;99.90;;;;;;5096621;28;19930;-69
2021/07/27 03:38:32;;;;;;;;;;;17.70;99.90;;;;;;5096616;28;20383;-68
2021/07/27 03:41:06;;;;;;;;;;;17.60;99.90;;;;;;5078202;28;19908;-68
2021/07/27 03:43:31;;;;;;;;;;;17.60;99.90;;;;;;5078017;28;19998;-69
2021/07/27 03:45:57;;;;;;;;;;;17.60;99.90;;;;;;5061512;28;19947;-69
2021/07/27 03:48:22;;;;;;;;;;;17.50;99.90;;;;;;5096610;28;19908;-68
2021/07/27 03:50:47;;;;;;;;;;;17.50;99.90;;;;;;5077958;28;20116;-69
2021/07/27 03:53:16;;;;;;;;;;;17.50;99.90;;;;;;5095763;28;19920;-69
2021/07/27 03:55:42;;;;;;;;;;;17.50;99.90;;;;;;5095950;28;19908;-69
2021/07/27 03:58:07;;;;;;;;;;;17.50;99.90;;;;;;5095887;28;20347;-68
2021/07/27 04:00:33;;;;;;;;;;;17.40;99.90;;;;;;5096128;28;19995;-69
2021/07/27 04:03:05;;;;;;;;;;;17.50;99.90;;;;;;5077910;28;19977;-69
2021/07/27 04:05:32;;;;;;;;;;;17.40;99.90;;;;;;5077603;28;19944;-69
2021/07/27 04:07:58;;;;;;;;;;;17.50;99.90;;;;;;5077593;28;19908;-69
2021/07/27 04:10:23;;;;;;;;;;;17.50;99.90;;;;;;5095661;28;19957;-69
2021/07/27 04:12:49;;;;;;;;;;;17.40;99.90;;;;;;5077400;28;19916;-69
2021/07/27 04:15:15;;;;;;;;;;;17.40;99.90;;;;;;5094577;28;19961;-69
2021/07/27 04:17:40;;;;;;;;;;;17.40;99.90;;;;;;5095501;28;19908;-69
2021/07/27 04:20:06;;;;;;;;;;;17.40;99.90;;;;;;5077694;28;19908;-69
2021/07/27 04:22:31;;;;;;;;;;;17.50;99.90;;;;;;5077655;28;20289;-69
2021/07/27 04:24:57;;;;;;;;;;;17.50;99.90;;;;;;5095673;28;20018;-69
2021/07/27 04:27:23;;;;;;;;;;;17.50;99.90;;;;;;5077682;28;19908;-68
2021/07/27 04:29:49;;;;;;;;;;;17.50;99.90;;;;;;5095259;28;19919;-69
2021/07/27 04:32:14;;;;;;;;;;;17.50;99.90;;;;;;5077050;28;20297;-69
2021/07/27 04:34:40;;;;;;;;;;;17.60;99.90;;;;;;5095161;28;19912;-69
2021/07/27 04:37:05;;;;;;;;;;;17.60;99.90;;;;;;5095113;28;19908;-69
2021/07/27 04:39:31;;;;;;;;;;;17.70;99.90;;;;;;5095058;28;19908;-68
2021/07/27 04:41:57;;;;;;;;;;;17.70;99.90;;;;;;5095267;28;19930;-69
2021/07/27 04:44:22;;;;;;;;;;;17.70;99.90;;;;;;5095137;28;19948;-69
2021/07/27 04:46:47;;;;;;;;;;;17.70;99.90;;;;;;5095277;28;19908;-69
2021/07/27 04:49:13;;;;;;;;;;;17.80;99.90;;;;;;5095186;28;19943;-69
2021/07/27 04:51:38;;;;;;;;;;;18.00;99.90;;;;;;5094805;28;19935;-69
2021/07/27 04:54:05;;;;;;;;;;;18.00;99.90;;;;;;5060288;28;19908;-69
2021/07/27 04:56:31;;;;;;;;;;;17.90;99.90;;;;;;5076617;28;20357;-69
2021/07/27 04:58:56;;;;;;;;;;;18.00;99.90;;;;;;5094771;28;19915;-69
2021/07/27 05:01:22;;;;;;;;;;;18.00;99.90;;;;;;5094676;28;19915;-68
2021/07/27 05:03:47;;;;;;;;;;;18.20;99.90;;;;;;5094649;28;19916;-69
2021/07/27 05:06:13;;;;;;;;;;;18.30;99.90;;;;;;5094640;28;19999;-69
2021/07/27 05:08:38;;;;;;;;;;;18.40;99.90;;;;;;5094560;28;19990;-69
2021/07/27 05:11:04;;;;;;;;;;;18.30;99.90;;;;;;5094539;28;19908;-69
2021/07/27 05:13:29;;;;;;;;;;;18.30;99.90;;;;;;5094399;28;19912;-69
2021/07/27 05:15:55;;;;;;;;;;;18.40;99.90;;;;;;5094416;28;20003;-69
2021/07/27 05:18:20;;;;;;;;;;;18.40;99.90;;;;;;5094391;28;19985;-69
2021/07/27 05:20:46;;;;;;;;;;;18.60;99.90;;;;;;5094368;28;19908;-69
2021/07/27 05:23:11;;;;;;;;;;;18.70;99.90;;;;;;5094332;28;19915;-68
2021/07/27 05:25:39;;;;;;;;;;;18.90;99.90;;;;;;5094511;28;19908;-69
2021/07/27 05:28:06;;;;;;;;;;;19.00;99.90;;;;;;5094307;28;19915;-69
2021/07/27 05:30:31;;;;;;;;;;;19.00;99.90;;;;;;5094196;28;20002;-69
2021/07/27 05:33:01;;;;;;;;;;;19.10;99.90;;;;;;5094157;28;20003;-69
2021/07/27 05:35:26;;;;;;;;;;;18.90;99.90;;;;;;5094145;28;19908;-69
2021/07/27 05:37:52;;;;;;;;;;;18.90;99.90;;;;;;5094366;28;20350;-69
2021/07/27 05:40:17;;;;;;;;;;;18.90;99.90;;;;;;5094361;28;19908;-69
2021/07/27 05:42:42;;;;;;;;;;;18.90;99.90;;;;;;5094339;28;19956;-69
2021/07/27 05:45:08;;;;;;;;;;;18.90;99.90;;;;;;5094299;28;19912;-69
2021/07/27 05:47:34;;;;;;;;;;;19.00;99.90;;;;;;5075914;28;19908;-69
2021/07/27 05:49:59;;;;;;;;;;;19.10;99.90;;;;;;5094269;28;20384;-69
2021/07/27 05:52:25;;;;;;;;;;;19.20;99.90;;;;;;5093833;28;19920;-69
2021/07/27 05:54:51;;;;;;;;;;;19.30;99.90;;;;;;5093913;28;19918;-69
2021/07/27 05:57:17;;;;;;;;;;;19.40;99.90;;;;;;5093911;28;20370;-69
2021/07/27 05:59:43;;;;;;;;;;;19.50;99.90;;;;;;5093905;28;19961;-69
2021/07/27 06:02:09;;;;;;;;;;;19.60;99.90;;;;;;5076078;28;19915;-69
2021/07/27 06:04:35;;;;;;;;;;;19.70;99.90;;;;;;5092358;28;20266;-69
2021/07/27 06:07:01;;;;;;;;;;;19.70;99.90;;;;;;5092347;28;19934;-69
2021/07/27 06:09:27;;;;;;;;;;;19.90;99.90;;;;;;5092743;28;19912;-69
2021/07/27 06:11:52;;;;;;;;;;;19.80;99.90;;;;;;5073913;28;19924;-69
2021/07/27 06:14:18;;;;;;;;;;;19.90;99.90;;;;;;5093145;28;20022;-69
2021/07/27 06:16:43;;;;;;;;;;;19.70;99.90;;;;;;5093513;28;19908;-69
2021/07/27 06:19:09;;;;;;;;;;;19.60;99.90;;;;;;5075381;28;19916;-69
2021/07/27 06:21:37;;;;;;;;;;;19.60;99.90;;;;;;5093713;28;20371;-69
2021/07/27 06:24:03;;;;;;;;;;;19.60;99.90;;;;;;5093670;28;19908;-69
2021/07/27 06:26:29;;;;;;;;;;;19.50;99.90;;;;;;5093662;28;19912;-69
2021/07/27 06:28:54;;;;;;;;;;;19.30;99.90;;;;;;5093598;28;19908;-69
2021/07/27 06:31:19;;;;;;;;;;;19.30;99.90;;;;;;5075982;28;19908;-70
2021/07/27 06:33:45;;;;;;;;;;;19.30;99.90;;;;;;5075277;28;20372;-69
2021/07/27 06:36:11;;;;;;;;;;;19.50;99.90;;;;;;5075257;28;19958;-70
2021/07/27 06:38:37;;;;;;;;;;;19.60;99.90;;;;;;5093150;28;20280;-69
2021/07/27 06:41:06;;;;;;;;;;;19.90;99.90;;;;;;5091014;28;19912;-70
2021/07/27 06:43:32;;;;;;;;;;;20.50;99.90;;;;;;5095211;28;19909;-69
2021/07/27 06:45:57;;;;;;;;;;;21.20;99.90;;;;;;5096798;28;19919;-70
2021/07/27 06:48:24;;;;;;;;;;;22.10;99.90;;;;;;5096709;28;20012;-70
2021/07/27 06:50:49;;;;;;;;;;;22.80;99.90;;;;;;5078905;28;20319;-70
2021/07/27 06:53:15;;;;;;;;;;;23.30;99.90;;;;;;5096351;28;19920;-70
2021/07/27 06:55:40;;;;;;;;;;;23.60;99.90;;;;;;5096684;28;19912;-70
2021/07/27 06:58:06;;;;;;;;;;;23.90;99.90;;;;;;5096955;28;19916;-70
2021/07/27 07:00:31;;;;;;;;;;;24.00;99.90;;;;;;5096468;28;19912;-70
2021/07/27 07:02:57;;;;;;;;;;;24.20;99.90;;;;;;5096836;28;19955;-70
2021/07/27 07:05:22;;;;;;;;;;;24.00;99.90;;;;;;5096375;28;19913;-70
2021/07/27 07:07:47;;;;;;;;;;;23.70;99.90;;;;;;5078291;28;19916;-70
2021/07/27 07:10:13;;;;;;;;;;;24.40;99.90;;;;;;5096561;28;19912;-70
2021/07/27 07:12:39;;;;;;;;;;;24.90;99.90;;;;;;5096643;28;20023;-70
2021/07/27 07:15:04;;;;;;;;;;;24.40;99.90;;;;;;5078321;28;19954;-70
2021/07/27 07:17:30;;;;;;;;;;;24.60;99.90;;;;;;5078355;28;19943;-69
2021/07/27 07:19:55;;;;;;;;;;;25.30;99.90;;;;;;5096456;28;19909;-69
2021/07/27 07:22:21;;;;;;;;;;;24.90;99.90;;;;;;5096128;28;20369;-70
2021/07/27 07:24:47;;;;;;;;;;;25.00;99.90;;;;;;5096512;28;19908;-70
2021/07/27 07:27:12;;;;;;;;;;;25.30;99.90;;;;;;5096183;28;19912;-70
2021/07/27 07:29:38;;;;;;;;;;;25.60;99.90;;;;;;5095864;28;19919;-70
2021/07/27 07:32:03;;;;;;;;;;;24.80;99.90;;;;;;5095876;28;19923;-70
2021/07/27 07:34:30;;;;;;;;;;;24.70;99.90;;;;;;5077818;28;19919;-70
2021/07/27 07:36:56;;;;;;;;;;;23.80;99.90;;;;;;5096209;28;19946;-70
2021/07/27 07:39:21;;;;;;;;;;;23.50;99.90;;;;;;5096102;28;19958;-70
2021/07/27 07:41:47;;;;;;;;;;;23.00;99.90;;;;;;5077334;28;19944;-70
2021/07/27 07:44:12;;;;;;;;;;;23.30;99.90;;;;;;5095710;28;20365;-70
2021/07/27 07:46:37;;;;;;;;;;;23.60;99.90;;;;;;5077653;28;19913;-70
2021/07/27 07:49:03;;;;;;;;;;;23.20;99.90;;;;;;5095263;28;19996;-70
2021/07/27 07:51:29;;;;;;;;;;;23.20;99.90;;;;;;5077562;28;19919;-70
2021/07/27 07:53:54;;;;;;;;;;;23.80;99.90;;;;;;5095074;28;19922;-69
2021/07/27 07:56:20;;;;;;;;;;;23.70;99.90;;;;;;5095741;28;19955;-70
2021/07/27 07:58:46;;;;;;;;;;;23.40;99.90;;;;;;5095477;28;19920;-70
2021/07/27 08:01:12;;;;;;;;;;;23.50;99.90;;;;;;5094901;28;20288;-70
2021/07/27 08:03:37;;;;;;;;;;;23.30;99.90;;;;;;5095590;28;19908;-70
2021/07/27 08:06:03;;;;;;;;;;;23.30;99.90;;;;;;5060734;28;19908;-70
2021/07/27 08:08:28;;;;;;;;;;;23.00;99.90;;;;;;5095065;28;19916;-69
2021/07/27 08:10:54;;;;;;;;;;;22.90;99.90;;;;;;5095534;28;19908;-70
2021/07/27 08:13:19;;;;;;;;;;;23.00;99.90;;;;;;5095117;28;19923;-69
2021/07/27 08:15:46;;;;;;;;;;;22.80;99.90;;;;;;5095262;28;19912;-69
2021/07/27 08:18:11;;;;;;;;;;;22.50;99.90;;;;;;5095086;28;19912;-70
2021/07/27 08:20:37;;;;;;;;;;;22.70;99.90;;;;;;5094596;28;19919;-70
2021/07/27 08:23:04;;;;;;;;;;;23.00;99.90;;;;;;5077498;28;19908;-70
2021/07/27 08:25:30;;;;;;;;;;;23.10;99.90;;;;;;5095015;28;20361;-70
2021/07/27 08:27:55;;;;;;;;;;;23.20;99.90;;;;;;5095145;28;19915;-69
2021/07/27 08:30:21;;;;;;;;;;;23.10;99.90;;;;;;5095583;28;19912;-70
2021/07/27 08:32:47;;;;;;;;;;;23.10;99.90;;;;;;5095410;28;19918;-70
2021/07/27 08:35:13;;;;;;;;;;;23.80;99.90;;;;;;5094925;28;19915;-70
2021/07/27 08:37:38;;;;;;;;;;;24.70;99.90;;;;;;5094096;28;20060;-70
2021/07/27 08:40:05;;;;;;;;;;;25.50;99.90;;;;;;5094697;28;19915;-70
2021/07/27 08:42:32;;;;;;;;;;;25.80;99.90;;;;;;5092905;28;19916;-70
2021/07/27 08:44:59;;;;;;;;;;;25.20;99.90;;;;;;5094020;28;19912;-71
2021/07/27 08:47:26;;;;;;;;;;;24.40;99.90;;;;;;5076008;28;20007;-70
2021/07/27 08:49:51;;;;;;;;;;;24.20;99.90;;;;;;5093720;28;20284;-70
2021/07/27 08:52:17;;;;;;;;;;;23.90;99.90;;;;;;5093418;28;19920;-70
2021/07/27 08:54:43;;;;;;;;;;;24.00;99.90;;;;;;5094629;28;19915;-70
2021/07/27 08:57:11;;;;;;;;;;;24.20;99.90;;;;;;5076236;28;19939;-70
2021/07/27 08:59:36;;;;;;;;;;;24.30;99.90;;;;;;5094085;28;19920;-70
2021/07/27 09:02:02;;;;;;;;;;;24.40;99.90;;;;;;5093842;28;19915;-70
2021/07/27 09:04:28;;;;;;;;;;;24.40;99.90;;;;;;5093137;28;19912;-70
2021/07/27 09:06:58;;;;;;;;;;;24.30;99.90;;;;;;5076173;28;20293;-69
2021/07/27 09:09:27;;;;;;;;;;;24.50;99.90;;;;;;5094171;28;19908;-69
2021/07/27 09:11:53;;;;;;;;;;;24.60;99.90;;;;;;5081792;28;19912;-70
2021/07/27 09:14:20;;;;;;;;;;;25.00;99.90;;;;;;5096961;28;19964;-71
2021/07/27 09:16:47;;;;;;;;;;;25.40;99.90;;;;;;5094200;28;19999;-70
2021/07/27 09:19:13;;;;;;;;;;;25.40;99.90;;;;;;5076008;28;20277;-70
2021/07/27 09:21:42;;;;;;;;;;;25.00;99.90;;;;;;5093434;28;20137;-70
2021/07/27 09:24:08;;;;;;;;;;;24.50;99.90;;;;;;5088336;28;19912;-70
2021/07/27 09:26:33;;;;;;;;;;;24.40;99.90;;;;;;5092818;28;19912;-70
2021/07/27 09:29:06;;;;;;;;;;;24.40;99.90;;;;;;5093016;28;19927;-70
2021/07/27 09:31:31;;;;;;;;;;;25.00;99.90;;;;;;5093628;28;19999;-70
2021/07/27 09:34:08;;;;;;;;;;;24.90;99.90;;;;;;5065428;28;20003;-68
2021/07/27 09:36:34;;;;;;;;;;;24.90;99.90;;;;;;5093387;28;19963;-70
2021/07/27 09:39:00;;;;;;;;;;;24.50;99.90;;;;;;5092874;28;19974;-70
2021/07/27 09:41:28;;;;;;;;;;;24.50;99.90;;;;;;5092201;28;19994;-69
2021/07/27 09:43:53;;;;;;;;;;;24.60;99.90;;;;;;5092618;28;19912;-70
2021/07/27 09:46:19;;;;;;;;;;;25.00;99.90;;;;;;5092884;28;19912;-70
2021/07/27 09:48:45;;;;;;;;;;;25.80;99.90;;;;;;5074266;28;19912;-68
2021/07/27 09:51:11;;;;;;;;;;;25.90;99.90;;;;;;5093212;28;20353;-70
2021/07/27 09:53:37;;;;;;;;;;;25.90;99.90;;;;;;5093031;28;19973;-70
2021/07/27 09:56:03;;;;;;;;;;;26.10;99.90;;;;;;5093134;28;20384;-70
2021/07/27 09:58:29;;;;;;;;;;;26.00;99.90;;;;;;5093383;28;19927;-71
2021/07/27 10:00:58;;;;;;;;;;;25.80;99.90;;;;;;5092933;28;19912;-70
2021/07/27 10:03:25;;;;;;;;;;;26.20;99.90;;;;;;5092478;28;19912;-71
2021/07/27 10:05:54;;;;;;;;;;;25.90;99.90;;;;;;5092850;28;19916;-70
2021/07/27 10:08:28;;;;;;;;;;;26.20;99.90;;;;;;5075032;28;19965;-70
2021/07/27 10:11:04;;;;;;;;;;;26.80;99.90;;;;;;5092671;28;20300;-69
2021/07/27 10:13:32;;;;;;;;;;;27.40;99.90;;;;;;5092400;28;19916;-70
2021/07/27 10:15:58;;;;;;;;;;;27.00;99.90;;;;;;5096973;28;19953;-70
2021/07/27 10:18:29;;;;;;;;;;;26.50;99.90;;;;;;5097537;28;19912;-70
2021/07/27 10:20:54;;;;;;;;;;;26.20;99.90;;;;;;5077270;28;19919;-70
2021/07/27 10:23:20;;;;;;;;;;;26.30;99.90;;;;;;5084583;28;19912;-70
2021/07/27 10:25:53;;;;;;;;;;;26.40;99.90;;;;;;5097010;28;19959;-70
2021/07/27 10:28:20;;;;;;;;;;;27.40;99.90;;;;;;5095835;28;19920;-70
2021/07/27 10:30:46;;;;;;;;;;;27.00;99.90;;;;;;5095785;28;19988;-70
2021/07/27 10:33:11;;;;;;;;;;;26.40;99.90;;;;;;5096233;28;20357;-67
2021/07/27 10:35:37;;;;;;;;;;;27.10;99.90;;;;;;5096989;28;20018;-69
2021/07/27 10:38:06;;;;;;;;;;;28.00;99.90;;;;;;5096884;28;19912;-69
2021/07/27 10:40:32;;;;;;;;;;;27.00;99.90;;;;;;5096163;28;20081;-70
2021/07/27 10:42:57;;;;;;;;;;;26.30;99.90;;;;;;5096262;28;20002;-70
2021/07/27 10:45:23;;;;;;;;;;;26.20;99.90;;;;;;5096478;28;20067;-69
2021/07/27 10:47:49;;;;;;;;;;;26.20;99.90;;;;;;5096359;28;19923;-69
2021/07/27 10:50:15;;;;;;;;;;;26.00;99.90;;;;;;5077783;28;19912;-69
2021/07/27 10:52:42;;;;;;;;;;;26.00;99.90;;;;;;5097471;28;19920;-70
2021/07/27 10:55:08;;;;;;;;;;;25.60;99.90;;;;;;5103267;28;19916;-70
2021/07/27 10:57:35;;;;;;;;;;;25.60;99.90;;;;;;5112961;28;19912;-70
2021/07/27 11:00:01;;;;;;;;;;;25.60;99.90;;;;;;5106548;28;19919;-68
2021/07/27 11:02:27;;;;;;;;;;;25.80;99.90;;;;;;5095281;28;19959;-68
2021/07/27 11:04:52;;;;;;;;;;;25.80;99.90;;;;;;5096624;28;19908;-69
2021/07/27 11:07:19;;;;;;;;;;;25.70;99.90;;;;;;5078399;28;19932;-69
2021/07/27 11:09:50;;;;;;;;;;;25.80;99.90;;;;;;5095626;28;20376;-69
2021/07/27 11:12:31;;;;;;;;;;;25.40;99.90;;;;;;5095329;28;20007;-69
2021/07/27 11:15:18;;;;;;;;;;;25.60;99.90;;;;;;5077415;28;19912;-70
2021/07/27 11:17:46;;;;;;;;;;;26.20;99.90;;;;;;5096343;28;19912;-69
2021/07/27 11:20:13;;;;;;;;;;;26.10;99.90;;;;;;5095043;28;19912;-70
2021/07/27 11:22:41;;;;;;;;;;;26.20;99.90;;;;;;5096070;28;19912;-69
2021/07/27 11:25:06;;;;;;;;;;;26.70;99.90;;;;;;5094507;28;19909;-69
2021/07/27 11:27:33;;;;;;;;;;;26.30;99.90;;;;;;5095878;28;19912;-70
2021/07/27 11:29:59;;;;;;;;;;;25.90;99.90;;;;;;5078817;28;19999;-67
2021/07/27 11:32:35;;;;;;;;;;;26.40;99.90;;;;;;5094816;28;20289;-70
2021/07/27 11:35:01;;;;;;;;;;;26.40;99.90;;;;;;5091454;28;19999;-71
2021/07/27 11:37:26;;;;;;;;;;;26.70;99.90;;;;;;5077160;28;19951;-70
2021/07/27 11:39:52;;;;;;;;;;;27.00;99.90;;;;;;5094521;28;19908;-70
2021/07/27 11:42:27;;;;;;;;;;;27.30;99.90;;;;;;5094612;28;19913;-70
2021/07/27 11:44:52;;;;;;;;;;;27.30;99.90;;;;;;5094699;28;19978;-70
2021/07/27 11:47:18;;;;;;;;;;;27.50;99.90;;;;;;5077649;28;20356;-69
2021/07/27 11:49:52;;;;;;;;;;;27.40;99.90;;;;;;5095348;28;19989;-69
2021/07/27 11:52:24;;;;;;;;;;;27.60;99.90;;;;;;5094291;28;19928;-70
2021/07/27 11:54:58;;;;;;;;;;;27.30;99.90;;;;;;5095128;28;19923;-70
2021/07/27 11:57:23;;;;;;;;;;;26.60;99.90;;;;;;5095068;28;20468;-73
2021/07/27 11:59:50;;;;;;;;;;;26.80;99.90;;;;;;5094701;28;19967;-69
2021/07/27 12:02:16;;;;;;;;;;;26.90;99.90;;;;;;5095447;28;19912;-69
2021/07/27 12:04:41;;;;;;;;;;;26.90;99.90;;;;;;5075972;28;20300;-71
2021/07/27 12:07:06;;;;;;;;;;;26.60;99.90;;;;;;5094186;28;19912;-70
2021/07/27 12:09:32;;;;;;;;;;;26.40;99.90;;;;;;5094652;28;20028;-70
2021/07/27 12:11:57;;;;;;;;;;;26.70;99.90;;;;;;5094915;28;19915;-71
2021/07/27 12:14:23;;;;;;;;;;;26.10;99.90;;;;;;5094760;28;19908;-69
2021/07/27 12:16:48;;;;;;;;;;;26.20;99.90;;;;;;5094542;28;20478;-72
2021/07/27 12:19:14;;;;;;;;;;;26.00;99.90;;;;;;5094832;28;20430;-71
2021/07/27 12:21:39;;;;;;;;;;;26.10;99.90;;;;;;5094102;28;19916;-70
2021/07/27 12:24:05;;;;;;;;;;;26.00;99.90;;;;;;5094971;28;20269;-71
2021/07/27 12:26:34;;;;;;;;;;;26.20;99.90;;;;;;5075464;28;19912;-71
2021/07/27 12:29:00;;;;;;;;;;;26.10;99.90;;;;;;5093367;28;19916;-70
2021/07/27 12:31:25;;;;;;;;;;;25.80;99.90;;;;;;5094330;28;20310;-70
2021/07/27 12:33:52;;;;;;;;;;;25.70;99.90;;;;;;5093759;28;20361;-70
2021/07/27 12:36:17;;;;;;;;;;;25.40;99.90;;;;;;5094877;28;19912;-71
2021/07/27 12:38:43;;;;;;;;;;;25.50;99.90;;;;;;5094501;28;19912;-70
2021/07/27 12:41:08;;;;;;;;;;;25.60;99.90;;;;;;5127331;27;19908;-70
2021/07/27 12:43:34;;;;;;;;;;;25.60;99.90;;;;;;5092503;28;19999;-70
2021/07/27 12:45:59;;;;;;;;;;;25.40;99.90;;;;;;5093536;28;20010;-70
2021/07/27 12:48:25;;;;;;;;;;;25.40;99.90;;;;;;5094304;28;19999;-69
2021/07/27 12:50:50;;;;;;;;;;;25.30;99.90;;;;;;5094494;28;20353;-71
2021/07/27 12:53:16;;;;;;;;;;;25.30;99.90;;;;;;5094586;28;20274;-69
2021/07/27 12:55:41;;;;;;;;;;;25.20;99.90;;;;;;5075956;28;19954;-70
2021/07/27 12:58:06;;;;;;;;;;;25.20;99.90;;;;;;5092366;28;19966;-70
2021/07/27 13:00:33;;;;;;;;;;;25.10;99.90;;;;;;5094303;28;19912;-69
2021/07/27 13:02:58;;;;;;;;;;;25.00;99.90;;;;;;5094096;28;19973;-70
2021/07/27 13:05:24;;;;;;;;;;;25.10;99.90;;;;;;5094148;28;20266;-70
2021/07/27 13:07:49;;;;;;;;;;;25.10;99.90;;;;;;5093492;28;20266;-71
2021/07/27 13:10:14;;;;;;;;;;;25.00;99.90;;;;;;5093003;28;20286;-70
2021/07/27 13:12:40;;;;;;;;;;;25.10;99.90;;;;;;5093841;28;20285;-70
2021/07/27 13:15:06;;;;;;;;;;;25.10;99.90;;;;;;5093776;28;19974;-71
2021/07/27 13:17:32;;;;;;;;;;;24.80;99.90;;;;;;5094341;28;20445;-72
2021/07/27 13:19:57;;;;;;;;;;;23.60;99.90;;;;;;5093403;28;19951;-68
2021/07/27 13:22:23;;;;;;;;;;;22.90;99.90;;;;;;5075391;28;19916;-69
2021/07/27 13:24:49;;;;;;;;;;;22.10;99.90;;;;;;5093667;28;19951;-70
2021/07/27 13:27:14;;;;;;;;;;;21.40;99.90;;;;;;5093976;28;19908;-70
2021/07/27 13:29:40;;;;;;;;;;;20.60;99.90;;;;;;5093815;28;19912;-70
2021/07/27 13:32:06;;;;;;;;;;;20.10;99.90;;;;;;5093037;28;19919;-70
2021/07/27 13:34:32;;;;;;;;;;;19.70;99.90;;;;;;5100194;28;19912;-70
2021/07/27 13:36:57;;;;;;;;;;;19.50;99.90;;;;;;5111718;28;20325;-70
2021/07/27 13:39:23;;;;;;;;;;;19.40;99.90;;;;;;5093622;28;19920;-69
2021/07/27 13:41:48;;;;;;;;;;;19.50;99.90;;;;;;5092589;28;19919;-71
2021/07/27 13:44:13;;;;;;;;;;;19.70;99.90;;;;;;5093580;28;19908;-70
2021/07/27 13:46:39;;;;;;;;;;;20.20;99.90;;;;;;5093498;28;20297;-69
2021/07/27 13:49:04;;;;;;;;;;;20.60;99.90;;;;;;5093637;28;19908;-71
2021/07/27 13:51:30;;;;;;;;;;;20.90;99.90;;;;;;5092680;28;19924;-71
2021/07/27 13:53:58;;;;;;;;;;;21.30;99.90;;;;;;5093415;28;19916;-72
2021/07/27 13:56:23;;;;;;;;;;;21.50;99.90;;;;;;5093619;28;19958;-71
2021/07/27 13:58:49;;;;;;;;;;;21.80;99.90;;;;;;5093012;28;19967;-71
2021/07/27 14:01:14;;;;;;;;;;;21.90;99.90;;;;;;5093110;28;19912;-71
2021/07/27 14:03:40;;;;;;;;;;;22.20;99.90;;;;;;5092761;28;19957;-73
2021/07/27 14:06:06;;;;;;;;;;;22.30;99.90;;;;;;5093161;28;19914;-71
2021/07/27 14:08:31;;;;;;;;;;;22.40;99.90;;;;;;5093100;28;19999;-70
2021/07/27 14:10:57;;;;;;;;;;;22.70;99.90;;;;;;5091657;28;19943;-71
2021/07/27 14:13:22;;;;;;;;;;;22.80;99.90;;;;;;5074872;28;19916;-71
2021/07/27 14:15:48;;;;;;;;;;;22.60;99.90;;;;;;5074041;28;19908;-70
2021/07/27 14:18:14;;;;;;;;;;;22.60;99.90;;;;;;5074522;28;20015;-72
2021/07/27 14:20:39;;;;;;;;;;;22.50;99.90;;;;;;5092592;28;20006;-71
2021/07/27 14:23:05;;;;;;;;;;;22.60;99.90;;;;;;5092486;28;19912;-72
2021/07/27 14:25:30;;;;;;;;;;;22.60;99.90;;;;;;5095676;28;20298;-71
2021/07/27 14:27:57;;;;;;;;;;;22.40;99.90;;;;;;5095665;28;20241;-71
2021/07/27 14:30:23;;;;;;;;;;;22.10;99.90;;;;;;5075254;28;19908;-70
2021/07/27 14:32:48;;;;;;;;;;;21.90;99.90;;;;;;5093714;28;20028;-69